createdAt,value
2023-01-10T00:00:02.381Z,13.50
2023-01-10T00:01:02.334Z,13.50
2023-01-10T00:02:02.316Z,13.60
2023-01-10T00:03:02.408Z,13.50
2023-01-10T00:04:02.305Z,13.50
2023-01-10T00:05:02.278Z,13.50
2023-01-10T00:06:02.267Z,13.40
2023-01-10T00:07:02.257Z,13.50
2023-01-10T00:08:02.251Z,13.30
2023-01-10T00:09:02.244Z,13.30
2023-01-10T00:10:02.224Z,13.40
2023-01-10T00:11:02.223Z,13.60
2023-01-10T00:12:02.203Z,13.60
2023-01-10T00:13:02.201Z,13.50
2023-01-10T00:14:02.193Z,13.50
2023-01-10T00:15:02.186Z,13.90
2023-01-10T00:16:02.182Z,13.80
2023-01-10T00:17:02.165Z,13.60
2023-01-10T00:18:02.139Z,13.50
2023-01-10T00:19:02.140Z,13.70
2023-01-10T00:20:02.128Z,13.70
2023-01-10T00:21:02.109Z,13.60
2023-01-10T00:22:02.097Z,13.80
2023-01-10T00:23:02.079Z,13.90
2023-01-10T00:24:02.082Z,13.70
2023-01-10T00:25:02.058Z,13.80
2023-01-10T00:26:02.054Z,13.50
2023-01-10T00:27:02.047Z,13.30
2023-01-10T00:28:02.028Z,13.50
2023-01-10T00:29:02.028Z,13.50
2023-01-10T00:30:02.018Z,13.50
2023-01-10T00:31:02.087Z,13.50
2023-01-10T00:32:01.995Z,13.50
2023-01-10T00:33:01.972Z,13.70
2023-01-10T00:34:01.973Z,13.60
2023-01-10T00:35:01.949Z,13.60
2023-01-10T00:36:01.938Z,13.70
2023-01-10T00:37:01.937Z,13.50
2023-01-10T00:38:01.917Z,13.60
2023-01-10T00:39:01.926Z,13.60
2023-01-10T00:40:01.895Z,13.40
2023-01-10T00:41:01.903Z,13.60
2023-01-10T00:42:01.873Z,13.60
2023-01-10T00:43:01.873Z,13.60
2023-01-10T00:44:01.872Z,13.60
2023-01-10T00:45:01.840Z,13.30
2023-01-10T00:46:01.868Z,13.50
2023-01-10T00:47:01.902Z,13.20
2023-01-10T00:48:01.818Z,13.30
2023-01-10T00:49:01.809Z,13.40
2023-01-10T00:50:01.810Z,13.40
2023-01-10T00:51:01.772Z,13.30
2023-01-10T00:52:01.768Z,13.40
2023-01-10T00:53:01.752Z,13.30
2023-01-10T00:54:01.757Z,13.40
2023-01-10T00:55:01.731Z,13.40
2023-01-10T00:56:01.725Z,13.30
2023-01-10T00:57:01.713Z,13.30
2023-01-10T00:58:01.713Z,13.20
2023-01-10T00:59:01.699Z,13.30
2023-01-10T01:00:01.681Z,13.30
2023-01-10T01:01:01.758Z,13.30
2023-01-10T01:02:01.686Z,13.40
2023-01-10T01:03:01.718Z,13.40
2023-01-10T01:04:01.660Z,13.50
2023-01-10T01:05:01.660Z,13.40
2023-01-10T01:06:01.626Z,13.50
2023-01-10T01:07:01.610Z,13.50
2023-01-10T01:08:01.589Z,13.40
2023-01-10T01:09:01.591Z,13.50
2023-01-10T01:10:01.568Z,13.40
2023-01-10T01:11:01.556Z,13.50
2023-01-10T01:12:01.550Z,13.40
2023-01-10T01:13:01.534Z,13.30
2023-01-10T01:14:01.533Z,13.60
2023-01-10T01:15:01.524Z,13.70
2023-01-10T01:16:01.530Z,13.70
2023-01-10T01:17:01.488Z,13.50
2023-01-10T01:18:01.498Z,13.50
2023-01-10T01:19:01.508Z,13.80
2023-01-10T01:20:01.483Z,13.70
2023-01-10T01:21:01.445Z,13.60
2023-01-10T01:22:01.446Z,13.60
2023-01-10T01:23:01.434Z,13.60
2023-01-10T01:24:01.529Z,13.50
2023-01-10T01:25:01.407Z,13.40
2023-01-10T01:26:01.444Z,13.40
2023-01-10T01:27:01.384Z,13.40
2023-01-10T01:28:01.374Z,13.30
2023-01-10T01:29:01.371Z,13.30
2023-01-10T01:30:01.368Z,13.50
2023-01-10T01:31:01.347Z,13.60
2023-01-10T01:32:01.331Z,13.40
2023-01-10T01:33:01.313Z,13.40
2023-01-10T01:34:01.323Z,13.50
2023-01-10T01:35:01.305Z,13.70
2023-01-10T01:36:01.283Z,13.30
2023-01-10T01:37:01.273Z,13.60
2023-01-10T01:38:01.262Z,13.50
2023-01-10T01:39:01.261Z,13.60
2023-01-10T01:40:01.243Z,13.60
2023-01-10T01:41:01.236Z,13.50
2023-01-10T01:42:01.218Z,13.40
2023-01-10T01:43:01.205Z,13.50
2023-01-10T01:44:01.223Z,13.40
2023-01-10T01:45:01.185Z,13.60
2023-01-10T01:46:01.242Z,13.70
2023-01-10T01:47:01.161Z,13.70
2023-01-10T01:48:01.155Z,13.50
2023-01-10T01:49:01.139Z,13.40
2023-01-10T01:50:01.145Z,13.60
2023-01-10T01:51:01.142Z,13.40
2023-01-10T01:52:01.112Z,13.60
2023-01-10T01:53:01.095Z,13.40
2023-01-10T01:54:01.088Z,13.50
2023-01-10T01:55:01.092Z,13.50
2023-01-10T01:56:01.063Z,13.60
2023-01-10T01:57:01.055Z,13.30
2023-01-10T01:58:01.043Z,13.50
2023-01-10T01:59:01.031Z,13.60
2023-01-10T02:00:01.030Z,13.50
2023-01-10T02:01:01.043Z,13.50
2023-01-10T02:02:01.144Z,13.50
2023-01-10T02:03:02.944Z,13.40
2023-01-10T02:04:01.020Z,13.40
2023-01-10T02:05:00.982Z,13.40
2023-01-10T02:06:00.955Z,13.60
2023-01-10T02:07:00.963Z,13.50
2023-01-10T02:08:00.939Z,13.50
2023-01-10T02:09:00.922Z,13.50
2023-01-10T02:10:00.926Z,13.40
2023-01-10T02:11:00.921Z,13.60
2023-01-10T02:12:00.895Z,13.60
2023-01-10T02:13:00.882Z,13.60
2023-01-10T02:14:00.874Z,13.40
2023-01-10T02:15:00.871Z,13.80
2023-01-10T02:16:00.908Z,13.30
2023-01-10T02:17:00.838Z,13.40
2023-01-10T02:18:00.828Z,13.50
2023-01-10T02:19:00.826Z,13.50
2023-01-10T02:20:00.825Z,13.60
2023-01-10T02:21:00.795Z,13.70
2023-01-10T02:22:00.789Z,13.40
2023-01-10T02:23:00.801Z,13.50
2023-01-10T02:24:00.767Z,13.50
2023-01-10T02:25:00.776Z,13.60
2023-01-10T02:26:00.745Z,13.60
2023-01-10T02:27:00.747Z,13.70
2023-01-10T02:28:00.727Z,13.50
2023-01-10T02:29:00.711Z,13.60
2023-01-10T02:30:00.716Z,13.50
2023-01-10T02:31:00.731Z,13.70
2023-01-10T02:32:00.684Z,13.60
2023-01-10T02:33:05.535Z,13.50
2023-01-10T02:34:01.652Z,13.70
2023-01-10T02:35:00.656Z,13.70
2023-01-10T02:36:00.633Z,13.60
2023-01-10T02:37:00.621Z,13.70
2023-01-10T02:38:00.626Z,13.50
2023-01-10T02:39:00.622Z,13.70
2023-01-10T02:40:00.611Z,13.40
2023-01-10T02:41:00.582Z,13.50
2023-01-10T02:42:00.572Z,13.50
2023-01-10T02:43:00.559Z,13.40
2023-01-10T02:44:00.549Z,13.30
2023-01-10T02:45:00.544Z,13.50
2023-01-10T02:46:00.526Z,13.50
2023-01-10T02:47:00.513Z,13.40
2023-01-10T02:48:00.512Z,13.40
2023-01-10T02:49:00.504Z,13.50
2023-01-10T02:50:00.504Z,13.50
2023-01-10T02:51:00.472Z,13.60
2023-01-10T02:52:00.459Z,13.60
2023-01-10T02:53:00.455Z,13.50
2023-01-10T02:54:00.445Z,13.40
2023-01-10T02:55:00.469Z,13.60
2023-01-10T02:56:00.426Z,13.60
2023-01-10T02:57:00.406Z,13.50
2023-01-10T02:58:00.396Z,13.50
2023-01-10T02:59:00.382Z,13.50
2023-01-10T03:00:00.389Z,13.30
2023-01-10T03:01:00.373Z,13.10
2023-01-10T03:02:00.365Z,13.50
2023-01-10T03:03:00.380Z,13.50
2023-01-10T03:04:00.333Z,13.50
2023-01-10T03:05:00.494Z,13.30
2023-01-10T03:06:00.310Z,13.60
2023-01-10T03:07:00.299Z,13.40
2023-01-10T03:08:00.290Z,13.50
2023-01-10T03:09:00.276Z,13.20
2023-01-10T03:10:00.282Z,13.30
2023-01-10T03:11:00.299Z,13.50
2023-01-10T03:12:00.245Z,13.40
2023-01-10T03:13:00.237Z,13.30
2023-01-10T03:14:00.228Z,14.00
2023-01-10T03:15:00.222Z,13.40
2023-01-10T03:16:00.274Z,13.40
2023-01-10T03:17:07.828Z,13.90
2023-01-10T03:18:00.187Z,13.20
2023-01-10T03:19:00.167Z,13.40
2023-01-10T03:20:00.176Z,13.50
2023-01-10T03:21:00.192Z,13.50
2023-01-10T03:22:00.135Z,13.50
2023-01-10T03:23:00.132Z,13.50
2023-01-10T03:24:00.145Z,14.50
2023-01-10T03:25:00.174Z,13.50
2023-01-10T03:26:00.127Z,13.60
2023-01-10T03:27:00.100Z,14.10
2023-01-10T03:28:00.092Z,13.50
2023-01-10T03:29:00.071Z,13.50
2023-01-10T03:30:00.076Z,13.60
2023-01-10T03:31:00.168Z,13.80
2023-01-10T03:32:00.035Z,14.20
2023-01-10T03:33:00.104Z,14.20
2023-01-10T03:34:00.022Z,14.50
2023-01-10T03:35:00.023Z,13.90
2023-01-10T03:35:59.989Z,14.60
2023-01-10T03:36:59.974Z,13.70
2023-01-10T03:37:59.964Z,13.60
2023-01-10T03:38:59.961Z,13.50
2023-01-10T03:39:59.962Z,13.50
2023-01-10T03:40:59.934Z,13.50
2023-01-10T03:41:59.925Z,13.80
2023-01-10T03:42:59.931Z,13.60
2023-01-10T03:43:59.914Z,13.70
2023-01-10T03:44:59.913Z,13.70
2023-01-10T03:45:59.884Z,13.80
2023-01-10T03:46:59.867Z,14.00
2023-01-10T03:47:59.875Z,13.60
2023-01-10T03:48:59.859Z,13.40
2023-01-10T03:49:59.865Z,13.50
2023-01-10T03:50:59.826Z,13.40
2023-01-10T03:51:59.814Z,13.50
2023-01-10T03:52:59.808Z,13.60
2023-01-10T03:53:59.796Z,14.10
2023-01-10T03:54:59.794Z,13.90
2023-01-10T03:55:59.787Z,13.40
2023-01-10T03:57:01.895Z,13.80
2023-01-10T03:57:59.750Z,13.30
2023-01-10T03:58:59.775Z,13.50
2023-01-10T03:59:59.741Z,13.60
2023-01-10T04:00:59.892Z,13.60
2023-01-10T04:01:59.909Z,13.50
2023-01-10T04:02:59.715Z,13.90
2023-01-10T04:03:59.725Z,14.20
2023-01-10T04:04:59.684Z,15.70
2023-01-10T04:05:59.677Z,13.80
2023-01-10T04:06:59.653Z,14.10
2023-01-10T04:07:59.658Z,14.60
2023-01-10T04:08:59.641Z,15.10
2023-01-10T04:09:59.642Z,14.10
2023-01-10T04:10:59.611Z,13.60
2023-01-10T04:11:59.606Z,14.50
2023-01-10T04:12:59.589Z,16.10
2023-01-10T04:13:59.576Z,13.60
2023-01-10T04:14:59.623Z,14.00
2023-01-10T04:15:59.602Z,15.20
2023-01-10T04:16:59.550Z,13.70
2023-01-10T04:17:59.543Z,13.60
2023-01-10T04:18:59.527Z,13.40
2023-01-10T04:19:59.539Z,13.60
2023-01-10T04:20:59.501Z,13.50
2023-01-10T04:21:59.494Z,13.50
2023-01-10T04:22:59.489Z,14.20
2023-01-10T04:23:59.471Z,13.40
2023-01-10T04:24:59.474Z,14.20
2023-01-10T04:25:59.447Z,16.10
2023-01-10T04:26:59.437Z,13.70
2023-01-10T04:27:59.431Z,13.50
2023-01-10T04:28:59.419Z,13.60
2023-01-10T04:29:59.416Z,14.10
2023-01-10T04:30:59.409Z,14.30
2023-01-10T04:31:59.385Z,13.60
2023-01-10T04:32:59.397Z,13.90
2023-01-10T04:33:59.366Z,14.20
2023-01-10T04:34:59.365Z,13.70
2023-01-10T04:35:59.343Z,14.20
2023-01-10T04:36:59.344Z,13.60
2023-01-10T04:37:59.322Z,14.00
2023-01-10T04:38:59.313Z,14.70
2023-01-10T04:39:59.314Z,15.80
2023-01-10T04:40:59.295Z,14.10
2023-01-10T04:41:59.278Z,14.20
2023-01-10T04:42:59.271Z,14.40
2023-01-10T04:43:59.265Z,14.00
2023-01-10T04:44:59.261Z,14.20
2023-01-10T04:45:59.310Z,14.60
2023-01-10T04:46:59.240Z,14.10
2023-01-10T04:47:59.211Z,13.90
2023-01-10T04:48:59.216Z,13.70
2023-01-10T04:49:59.213Z,15.80
2023-01-10T04:50:59.182Z,13.80
2023-01-10T04:51:59.169Z,13.90
2023-01-10T04:52:59.160Z,14.10
2023-01-10T04:53:59.147Z,15.20
2023-01-10T04:54:59.146Z,14.70
2023-01-10T04:55:59.126Z,13.70
2023-01-10T04:56:59.115Z,15.00
2023-01-10T04:57:59.103Z,13.90
2023-01-10T04:58:59.094Z,13.80
2023-01-10T04:59:59.089Z,15.00
2023-01-10T05:00:59.105Z,14.60
2023-01-10T05:01:59.296Z,14.40
2023-01-10T05:02:59.190Z,14.70
2023-01-10T05:03:59.053Z,14.70
2023-01-10T05:04:59.047Z,14.00
2023-01-10T05:05:59.034Z,14.30
2023-01-10T05:06:59.015Z,14.40
2023-01-10T05:07:58.995Z,14.30
2023-01-10T05:08:58.992Z,14.20
2023-01-10T05:09:58.994Z,13.80
2023-01-10T05:10:58.963Z,13.80
2023-01-10T05:11:58.952Z,14.30
2023-01-10T05:12:58.947Z,14.10
2023-01-10T05:13:58.972Z,14.00
2023-01-10T05:14:58.933Z,14.40
2023-01-10T05:15:58.918Z,17.60
2023-01-10T05:16:58.899Z,14.00
2023-01-10T05:17:58.896Z,14.00
2023-01-10T05:18:58.911Z,13.80
2023-01-10T05:19:58.885Z,15.00
2023-01-10T05:20:58.857Z,14.30
2023-01-10T05:21:58.845Z,13.60
2023-01-10T05:22:58.835Z,14.20
2023-01-10T05:23:58.823Z,14.50
2023-01-10T05:24:58.814Z,15.80
2023-01-10T05:25:58.811Z,14.40
2023-01-10T05:26:58.790Z,14.30
2023-01-10T05:27:58.778Z,14.50
2023-01-10T05:28:58.770Z,14.20
2023-01-10T05:29:58.756Z,13.90
2023-01-10T05:30:58.763Z,14.30
2023-01-10T05:31:58.790Z,14.10
2023-01-10T05:32:58.727Z,14.00
2023-01-10T05:33:58.712Z,16.00
2023-01-10T05:34:58.722Z,14.00
2023-01-10T05:35:58.702Z,13.90
2023-01-10T05:36:58.679Z,13.90
2023-01-10T05:37:58.668Z,14.20
2023-01-10T05:38:58.661Z,14.20
2023-01-10T05:39:58.652Z,14.00
2023-01-10T05:40:59.127Z,14.00
2023-01-10T05:41:58.626Z,14.20
2023-01-10T05:42:58.624Z,14.80
2023-01-10T05:43:58.602Z,14.30
2023-01-10T05:44:58.591Z,14.00
2023-01-10T05:45:58.610Z,14.10
2023-01-10T05:46:58.570Z,14.00
2023-01-10T05:47:58.558Z,14.00
2023-01-10T05:48:58.549Z,14.30
2023-01-10T05:49:58.564Z,14.10
2023-01-10T05:50:58.557Z,13.80
2023-01-10T05:51:58.517Z,14.00
2023-01-10T05:52:58.504Z,14.20
2023-01-10T05:53:58.492Z,14.00
2023-01-10T05:54:58.482Z,14.40
2023-01-10T05:55:58.485Z,14.10
2023-01-10T05:56:58.464Z,14.40
2023-01-10T05:57:58.447Z,14.40
2023-01-10T05:59:07.809Z,14.40
2023-01-10T05:59:59.428Z,14.00
2023-01-10T06:00:58.535Z,14.50
2023-01-10T06:01:58.441Z,14.60
2023-01-10T06:02:58.525Z,14.30
2023-01-10T06:03:58.421Z,14.30
2023-01-10T06:04:58.375Z,14.10
2023-01-10T06:05:58.378Z,14.70
2023-01-10T06:06:58.369Z,15.50
2023-01-10T06:07:58.338Z,14.60
2023-01-10T06:08:58.333Z,14.00
2023-01-10T06:09:58.316Z,14.00
2023-01-10T06:10:58.318Z,14.30
2023-01-10T06:11:58.296Z,14.60
2023-01-10T06:12:58.284Z,14.40
2023-01-10T06:13:58.281Z,14.00
2023-01-10T06:14:58.311Z,13.90
2023-01-10T06:15:58.285Z,14.50
2023-01-10T06:16:58.245Z,15.80
2023-01-10T06:17:58.229Z,14.20
2023-01-10T06:18:58.248Z,13.90
2023-01-10T06:19:58.213Z,14.80
2023-01-10T06:20:58.217Z,14.70
2023-01-10T06:21:58.182Z,14.00
2023-01-10T06:22:58.303Z,14.20
2023-01-10T06:23:58.174Z,14.00
2023-01-10T06:24:58.156Z,14.10
2023-01-10T06:25:58.159Z,14.10
2023-01-10T06:26:58.131Z,13.80
2023-01-10T06:27:58.117Z,14.90
2023-01-10T06:28:58.109Z,14.40
2023-01-10T06:29:58.110Z,14.10
2023-01-10T06:30:58.147Z,14.70
2023-01-10T06:31:58.073Z,14.60
2023-01-10T06:32:58.065Z,14.80
2023-01-10T06:33:58.051Z,14.30
2023-01-10T06:34:58.053Z,14.00
2023-01-10T06:35:58.042Z,14.10
2023-01-10T06:36:58.023Z,14.40
2023-01-10T06:37:58.020Z,16.00
2023-01-10T06:38:58.026Z,14.20
2023-01-10T06:39:57.985Z,14.60
2023-01-10T06:40:57.988Z,14.50
2023-01-10T06:41:57.965Z,14.90
2023-01-10T06:42:57.957Z,15.10
2023-01-10T06:43:57.942Z,14.40
2023-01-10T06:44:57.931Z,14.80
2023-01-10T06:45:57.945Z,14.20
2023-01-10T06:46:57.921Z,14.80
2023-01-10T06:47:57.898Z,14.70
2023-01-10T06:48:57.911Z,15.50
2023-01-10T06:49:57.882Z,15.10
2023-01-10T06:50:57.878Z,14.20
2023-01-10T06:51:57.858Z,14.90
2023-01-10T06:52:57.843Z,16.00
2023-01-10T06:53:57.837Z,14.50
2023-01-10T06:54:57.838Z,14.70
2023-01-10T06:55:57.817Z,15.10
2023-01-10T06:56:57.804Z,14.90
2023-01-10T06:57:57.823Z,14.30
2023-01-10T06:58:57.777Z,14.50
2023-01-10T06:59:57.765Z,14.90
2023-01-10T07:00:57.889Z,15.00
2023-01-10T07:01:57.909Z,14.80
2023-01-10T07:02:57.733Z,14.80
2023-01-10T07:03:57.795Z,15.00
2023-01-10T07:04:57.711Z,15.10
2023-01-10T07:05:57.711Z,14.80
2023-01-10T07:06:57.689Z,14.80
2023-01-10T07:07:57.677Z,14.40
2023-01-10T07:08:57.678Z,14.90
2023-01-10T07:09:57.658Z,15.10
2023-01-10T07:10:57.684Z,14.80
2023-01-10T07:11:57.632Z,14.30
2023-01-10T07:12:57.635Z,15.20
2023-01-10T07:13:57.609Z,16.20
2023-01-10T07:14:57.625Z,14.70
2023-01-10T07:15:57.618Z,15.40
2023-01-10T07:16:57.634Z,14.80
2023-01-10T07:17:57.603Z,14.20
2023-01-10T07:18:57.569Z,14.10
2023-01-10T07:19:57.545Z,15.10
2023-01-10T07:20:57.544Z,15.10
2023-01-10T07:21:57.530Z,14.40
2023-01-10T07:22:57.525Z,15.10
2023-01-10T07:23:57.504Z,16.20
2023-01-10T07:24:57.500Z,15.10
2023-01-10T07:25:57.487Z,14.70
2023-01-10T07:26:57.499Z,15.50
2023-01-10T07:27:57.461Z,15.20
2023-01-10T07:28:57.457Z,15.00
2023-01-10T07:29:57.436Z,14.60
2023-01-10T07:30:57.492Z,15.00
2023-01-10T07:31:57.412Z,14.80
2023-01-10T07:32:57.405Z,14.90
2023-01-10T07:33:57.401Z,14.50
2023-01-10T07:34:57.382Z,14.50
2023-01-10T07:35:57.386Z,14.50
2023-01-10T07:36:57.364Z,15.80
2023-01-10T07:37:57.348Z,15.00
2023-01-10T07:38:57.340Z,14.70
2023-01-10T07:39:57.330Z,15.60
2023-01-10T07:40:57.335Z,14.70
2023-01-10T07:41:57.304Z,14.40
2023-01-10T07:42:57.312Z,15.30
2023-01-10T07:43:57.286Z,15.40
2023-01-10T07:44:57.274Z,14.60
2023-01-10T07:45:57.285Z,14.80
2023-01-10T07:46:57.249Z,14.80
2023-01-10T07:47:57.245Z,15.20
2023-01-10T07:48:57.230Z,15.70
2023-01-10T07:49:57.224Z,15.70
2023-01-10T07:50:57.217Z,15.10
2023-01-10T07:51:57.211Z,15.10
2023-01-10T07:52:57.187Z,15.00
2023-01-10T07:53:57.190Z,14.70
2023-01-10T07:54:57.165Z,14.60
2023-01-10T07:55:57.165Z,15.30
2023-01-10T07:56:57.142Z,14.60
2023-01-10T07:57:57.138Z,14.60
2023-01-10T07:58:57.150Z,14.50
2023-01-10T07:59:57.139Z,15.10
2023-01-10T08:00:57.160Z,14.50
2023-01-10T08:01:57.085Z,14.90
2023-01-10T08:02:57.221Z,14.80
2023-01-10T08:03:57.064Z,14.60
2023-01-10T08:04:57.058Z,14.80
2023-01-10T08:05:57.067Z,15.10
2023-01-10T08:06:57.047Z,14.70
2023-01-10T08:07:57.023Z,14.30
2023-01-10T08:08:57.020Z,14.60
2023-01-10T08:09:56.999Z,14.90
2023-01-10T08:10:57.006Z,15.10
2023-01-10T08:11:56.989Z,14.60
2023-01-10T08:13:01.546Z,14.20
2023-01-10T08:13:57.953Z,15.20
2023-01-10T08:14:56.967Z,14.20
2023-01-10T08:15:57.001Z,14.50
2023-01-10T08:16:56.943Z,15.00
2023-01-10T08:17:56.911Z,14.60
2023-01-10T08:18:56.942Z,14.50
2023-01-10T08:19:56.891Z,15.60
2023-01-10T08:20:56.886Z,15.30
2023-01-10T08:21:56.872Z,15.00
2023-01-10T08:22:56.853Z,14.50
2023-01-10T08:23:56.848Z,16.60
2023-01-10T08:24:56.871Z,15.00
2023-01-10T08:25:56.836Z,14.70
2023-01-10T08:26:56.814Z,14.60
2023-01-10T08:27:56.812Z,14.80
2023-01-10T08:28:56.791Z,14.10
2023-01-10T08:29:56.777Z,14.40
2023-01-10T08:30:56.836Z,14.20
2023-01-10T08:31:56.754Z,14.00
2023-01-10T08:32:56.745Z,15.00
2023-01-10T08:33:56.739Z,14.30
2023-01-10T08:34:56.722Z,14.20
2023-01-10T08:35:56.722Z,14.70
2023-01-10T08:36:56.708Z,14.70
2023-01-10T08:37:56.697Z,15.00
2023-01-10T08:38:56.685Z,14.20
2023-01-10T08:39:56.676Z,14.50
2023-01-10T08:40:56.669Z,15.50
2023-01-10T08:41:56.645Z,14.20
2023-01-10T08:42:56.633Z,14.80
2023-01-10T08:43:56.623Z,14.70
2023-01-10T08:44:56.612Z,15.10
2023-01-10T08:45:56.611Z,14.80
2023-01-10T08:46:56.675Z,14.50
2023-01-10T08:47:56.586Z,14.60
2023-01-10T08:48:56.568Z,15.20
2023-01-10T08:49:56.559Z,15.00
2023-01-10T08:50:56.558Z,14.30
2023-01-10T08:51:56.541Z,14.60
2023-01-10T08:52:56.524Z,14.90
2023-01-10T08:53:56.529Z,15.30
2023-01-10T08:54:56.501Z,15.40
2023-01-10T08:55:56.511Z,14.40
2023-01-10T08:56:56.477Z,14.80
2023-01-10T08:57:56.471Z,15.40
2023-01-10T08:58:56.464Z,15.20
2023-01-10T08:59:56.452Z,14.30
2023-01-10T09:00:56.527Z,15.40
2023-01-10T09:01:56.450Z,14.40
2023-01-10T09:02:56.510Z,14.60
2023-01-10T09:03:56.407Z,14.60
2023-01-10T09:04:56.394Z,14.30
2023-01-10T09:05:56.384Z,14.70
2023-01-10T09:06:56.420Z,14.80
2023-01-10T09:07:56.374Z,14.70
2023-01-10T09:08:56.369Z,14.80
2023-01-10T09:09:56.342Z,14.20
2023-01-10T09:10:56.329Z,14.90
2023-01-10T09:11:56.328Z,14.80
2023-01-10T09:12:56.333Z,14.80
2023-01-10T09:13:56.307Z,15.30
2023-01-10T09:14:56.308Z,14.40
2023-01-10T09:15:56.340Z,14.80
2023-01-10T09:16:56.272Z,15.20
2023-01-10T09:17:56.279Z,15.00
2023-01-10T09:18:56.284Z,15.30
2023-01-10T09:19:56.271Z,15.10
2023-01-10T09:20:56.222Z,14.60
2023-01-10T09:21:56.249Z,14.40
2023-01-10T09:22:56.203Z,14.60
2023-01-10T09:23:56.192Z,14.10
2023-01-10T09:24:56.178Z,14.10
2023-01-10T09:25:56.168Z,14.40
2023-01-10T09:26:56.166Z,14.50
2023-01-10T09:27:56.143Z,14.20
2023-01-10T09:28:56.132Z,14.20
2023-01-10T09:29:56.126Z,14.10
2023-01-10T09:30:56.112Z,15.60
2023-01-10T09:31:56.119Z,14.80
2023-01-10T09:32:56.090Z,14.10
2023-01-10T09:33:56.084Z,13.90
2023-01-10T09:34:56.084Z,16.10
2023-01-10T09:35:56.056Z,15.30
2023-01-10T09:36:56.051Z,14.20
2023-01-10T09:37:56.054Z,14.10
2023-01-10T09:39:03.932Z,14.30
2023-01-10T09:39:56.013Z,15.00
2023-01-10T09:40:56.012Z,14.10
2023-01-10T09:41:56.003Z,14.20
2023-01-10T09:42:56.003Z,14.20
2023-01-10T09:43:55.971Z,14.30
2023-01-10T09:44:55.955Z,15.10
2023-01-10T09:45:55.949Z,14.30
2023-01-10T09:46:55.983Z,14.50
2023-01-10T09:47:55.952Z,14.00
2023-01-10T09:48:55.928Z,14.10
2023-01-10T09:49:55.914Z,15.30
2023-01-10T09:50:55.922Z,14.10
2023-01-10T09:51:58.244Z,14.20
2023-01-10T09:52:55.868Z,15.40
2023-01-10T09:54:10.058Z,13.80
2023-01-10T09:54:56.848Z,14.20
2023-01-10T09:55:55.841Z,14.00
2023-01-10T09:56:55.848Z,14.40
2023-01-10T09:57:55.816Z,14.90
2023-01-10T09:58:55.808Z,14.80
2023-01-10T09:59:55.796Z,14.40
2023-01-10T10:00:55.854Z,13.90
2023-01-10T10:01:55.791Z,14.50
2023-01-10T10:02:55.806Z,14.50
2023-01-10T10:03:55.866Z,14.20
2023-01-10T10:04:55.743Z,14.00
2023-01-10T10:06:03.643Z,14.70
2023-01-10T10:06:56.770Z,13.80
2023-01-10T10:07:55.711Z,14.20
2023-01-10T10:08:55.692Z,15.60
2023-01-10T10:09:55.684Z,14.20
2023-01-10T10:10:55.769Z,14.00
2023-01-10T10:11:55.675Z,14.90
2023-01-10T10:12:55.690Z,14.40
2023-01-10T10:13:55.641Z,14.30
2023-01-10T10:14:55.633Z,14.00
2023-01-10T10:15:55.685Z,14.30
2023-01-10T10:16:55.623Z,14.50
2023-01-10T10:17:55.603Z,14.10
2023-01-10T10:18:55.581Z,14.90
2023-01-10T10:19:55.607Z,15.30
2023-01-10T10:20:55.563Z,14.50
2023-01-10T10:21:55.566Z,14.60
2023-01-10T10:22:55.562Z,15.00
2023-01-10T10:23:55.544Z,14.70
2023-01-10T10:24:55.541Z,15.60
2023-01-10T10:25:55.515Z,14.60
2023-01-10T10:26:55.513Z,15.30
2023-01-10T10:27:55.488Z,15.90
2023-01-10T10:28:55.624Z,14.70
2023-01-10T10:29:55.469Z,14.80
2023-01-10T10:30:55.454Z,14.80
2023-01-10T10:31:55.489Z,14.50
2023-01-10T10:32:55.457Z,14.70
2023-01-10T10:33:55.419Z,14.90
2023-01-10T10:34:55.411Z,14.60
2023-01-10T10:35:55.399Z,15.00
2023-01-10T10:36:55.398Z,14.50
2023-01-10T10:37:55.386Z,14.80
2023-01-10T10:38:55.379Z,14.50
2023-01-10T10:39:55.402Z,14.50
2023-01-10T10:40:55.348Z,14.30
2023-01-10T10:41:55.342Z,15.60
2023-01-10T10:42:55.331Z,14.40
2023-01-10T10:43:55.315Z,14.50
2023-01-10T10:44:55.313Z,14.70
2023-01-10T10:45:55.427Z,14.10
2023-01-10T10:46:55.287Z,14.70
2023-01-10T10:47:55.270Z,15.30
2023-01-10T10:48:55.252Z,14.30
2023-01-10T10:49:55.249Z,14.50
2023-01-10T10:50:55.231Z,14.70
2023-01-10T10:51:55.239Z,14.70
2023-01-10T10:52:55.207Z,15.20
2023-01-10T10:53:55.198Z,15.10
2023-01-10T10:54:55.238Z,14.90
2023-01-10T10:55:55.175Z,15.30
2023-01-10T10:56:55.226Z,15.90
2023-01-10T10:58:00.222Z,14.90
2023-01-10T10:58:56.146Z,14.80
2023-01-10T10:59:55.134Z,14.60
2023-01-10T11:00:55.262Z,14.40
2023-01-10T11:01:55.279Z,14.30
2023-01-10T11:02:55.100Z,15.30
2023-01-10T11:03:55.094Z,14.60
2023-01-10T11:04:55.125Z,14.40
2023-01-10T11:05:55.069Z,14.80
2023-01-10T11:06:55.081Z,15.30
2023-01-10T11:07:55.048Z,14.70
2023-01-10T11:08:55.034Z,14.60
2023-01-10T11:09:55.028Z,15.10
2023-01-10T11:10:55.042Z,14.90
2023-01-10T11:11:55.012Z,14.20
2023-01-10T11:12:54.991Z,15.30
2023-01-10T11:13:54.982Z,14.40
2023-01-10T11:14:54.968Z,14.70
2023-01-10T11:15:56.263Z,13.90
2023-01-10T11:16:54.965Z,14.00
2023-01-10T11:17:54.935Z,14.50
2023-01-10T11:18:54.927Z,15.40
2023-01-10T11:19:54.911Z,15.30
2023-01-10T11:20:54.907Z,14.30
2023-01-10T11:21:54.915Z,15.60
2023-01-10T11:22:54.876Z,16.40
2023-01-10T11:23:54.869Z,14.30
2023-01-10T11:24:54.854Z,14.80
2023-01-10T11:25:54.851Z,14.40
2023-01-10T11:26:54.860Z,14.30
2023-01-10T11:27:54.824Z,14.20
2023-01-10T11:28:54.810Z,14.50
2023-01-10T11:29:54.802Z,14.70
2023-01-10T11:30:54.794Z,13.80
2023-01-10T11:31:54.864Z,14.70
2023-01-10T11:32:54.770Z,14.50
2023-01-10T11:33:54.757Z,14.40
2023-01-10T11:34:54.746Z,15.60
2023-01-10T11:35:54.735Z,14.00
2023-01-10T11:36:54.753Z,14.50
2023-01-10T11:37:54.719Z,15.30
2023-01-10T11:38:54.705Z,17.10
2023-01-10T11:39:54.695Z,14.30
2023-01-10T11:40:54.678Z,14.30
2023-01-10T11:41:54.683Z,15.00
2023-01-10T11:42:54.697Z,14.30
2023-01-10T11:43:54.646Z,14.50
2023-01-10T11:44:54.634Z,14.40
2023-01-10T11:45:54.722Z,14.20
2023-01-10T11:46:54.623Z,14.60
2023-01-10T11:47:54.604Z,14.10
2023-01-10T11:49:08.635Z,15.40
2023-01-10T11:49:55.607Z,14.50
2023-01-10T11:50:54.582Z,14.40
2023-01-10T11:51:54.571Z,15.70
2023-01-10T11:52:54.544Z,14.90
2023-01-10T11:53:54.536Z,14.10
2023-01-10T11:54:54.533Z,14.60
2023-01-10T11:55:54.516Z,15.60
2023-01-10T11:56:54.520Z,14.10
2023-01-10T11:57:54.493Z,13.90
2023-01-10T11:58:54.496Z,14.60
2023-01-10T11:59:54.470Z,14.80
2023-01-10T12:00:54.517Z,14.40
2023-01-10T12:01:54.502Z,14.40
2023-01-10T12:02:54.441Z,14.40
2023-01-10T12:03:54.430Z,14.60
2023-01-10T12:04:54.468Z,15.70
2023-01-10T12:05:54.411Z,14.30
2023-01-10T12:06:54.401Z,14.10
2023-01-10T12:07:54.381Z,14.30
2023-01-10T12:08:54.369Z,14.50
2023-01-10T12:09:54.364Z,14.90
2023-01-10T12:10:54.347Z,14.10
2023-01-10T12:11:54.346Z,14.00
2023-01-10T12:12:54.369Z,13.90
2023-01-10T12:13:54.319Z,15.00
2023-01-10T12:14:54.323Z,14.90
2023-01-10T12:15:54.297Z,14.50
2023-01-10T12:16:54.290Z,14.40
2023-01-10T12:17:54.274Z,15.10
2023-01-10T12:18:54.258Z,14.40
2023-01-10T12:19:54.249Z,14.70
2023-01-10T12:20:54.243Z,14.50
2023-01-10T12:21:54.235Z,14.40
2023-01-10T12:22:54.219Z,14.30
2023-01-10T12:23:54.214Z,14.10
2023-01-10T12:24:54.220Z,14.80
2023-01-10T12:26:07.207Z,14.20
2023-01-10T12:26:55.177Z,14.30
2023-01-10T12:27:54.176Z,14.80
2023-01-10T12:28:54.157Z,15.00
2023-01-10T12:29:54.139Z,14.70
2023-01-10T12:30:54.195Z,14.40
2023-01-10T12:31:54.124Z,14.90
2023-01-10T12:32:54.117Z,14.70
2023-01-10T12:33:54.095Z,14.60
2023-01-10T12:34:54.086Z,15.70
2023-01-10T12:35:54.072Z,15.00
2023-01-10T12:36:54.071Z,14.60
2023-01-10T12:37:54.060Z,15.00
2023-01-10T12:38:54.076Z,14.90
2023-01-10T12:39:54.031Z,14.50
2023-01-10T12:40:54.018Z,14.50
2023-01-10T12:41:54.004Z,15.10
2023-01-10T12:42:54.034Z,15.10
2023-01-10T12:43:53.983Z,15.00
2023-01-10T12:44:53.984Z,14.70
2023-01-10T12:45:54.048Z,15.20
2023-01-10T12:47:06.609Z,14.30
2023-01-10T12:47:54.947Z,14.70
2023-01-10T12:48:53.933Z,15.80
2023-01-10T12:49:53.923Z,14.20
2023-01-10T12:50:53.994Z,14.50
2023-01-10T12:51:53.897Z,15.00